Time;durP1;ratioP1;P1;durP2;ratioP2;P2;SDS_P1;SDS_P2;PMS_P1;PMS_P2;Temp;Humidity;BMP_temperature;BMP_pressure;BME280_temperature;BME280_humidity;BME280_pressure;Samples;Min_cycle;Max_cycle;Signal;HPM_P1;HPM_P2
2023/10/27 00:00:11;;;;;;;7.63;1.30;;;8.20;100.00;;;;;;4870086;29;20060;-75
2023/10/27 00:02:39;;;;;;;4.72;1.30;;;8.20;100.00;;;;;;4866476;29;20133;-76
2023/10/27 00:05:06;;;;;;;7.07;1.48;;;8.20;100.00;;;;;;4869692;29;20049;-75
2023/10/27 00:07:33;;;;;;;10.65;1.55;;;8.10;100.00;;;;;;4873525;29;20089;-75
2023/10/27 00:10:00;;;;;;;5.63;1.45;;;8.10;100.00;;;;;;4871993;29;20049;-75
2023/10/27 00:12:27;;;;;;;8.63;1.77;;;8.10;100.00;;;;;;4868897;29;20044;-75
2023/10/27 00:14:54;;;;;;;3.55;1.33;;;8.10;100.00;;;;;;4869055;29;20196;-75
2023/10/27 00:17:21;;;;;;;3.03;1.65;;;8.10;100.00;;;;;;4869202;29;20080;-75
2023/10/27 00:19:47;;;;;;;3.97;1.55;;;8.10;100.00;;;;;;4868614;29;20140;-75
2023/10/27 00:22:14;;;;;;;9.50;1.70;;;8.10;100.00;;;;;;4868436;29;20045;-75
2023/10/27 00:24:42;;;;;;;2.08;1.10;;;8.00;100.00;;;;;;4867778;29;20677;-75
2023/10/27 00:27:09;;;;;;;4.60;1.77;;;8.00;100.00;;;;;;4867408;29;20117;-75
2023/10/27 00:29:36;;;;;;;5.45;2.00;;;8.10;100.00;;;;;;4869852;29;20072;-75
2023/10/27 00:32:04;;;;;;;3.15;1.70;;;8.10;100.00;;;;;;4867170;29;20053;-75
2023/10/27 00:34:30;;;;;;;6.85;1.52;;;8.10;100.00;;;;;;4869063;29;20267;-75
2023/10/27 00:36:57;;;;;;;8.73;1.80;;;8.00;100.00;;;;;;4868870;29;20511;-75
2023/10/27 00:39:24;;;;;;;5.25;2.17;;;8.00;100.00;;;;;;4870559;29;20053;-75
2023/10/27 00:41:51;;;;;;;8.18;1.67;;;8.10;100.00;;;;;;4866546;29;20077;-75
2023/10/27 00:44:18;;;;;;;3.83;1.73;;;8.10;100.00;;;;;;4866409;29;20052;-75
2023/10/27 00:46:45;;;;;;;5.75;1.67;;;8.00;100.00;;;;;;4867831;29;20085;-75
2023/10/27 00:49:13;;;;;;;4.03;1.65;;;8.00;100.00;;;;;;4867855;29;20092;-75
2023/10/27 00:51:41;;;;;;;8.40;1.92;;;8.00;100.00;;;;;;4866051;29;20061;-74
2023/10/27 00:54:11;;;;;;;4.25;1.98;;;8.00;100.00;;;;;;4868410;29;20085;-74
2023/10/27 00:56:39;;;;;;;7.72;2.05;;;8.00;100.00;;;;;;4870235;29;20112;-75
2023/10/27 00:59:06;;;;;;;7.28;1.90;;;8.00;100.00;;;;;;4865945;29;20100;-75
2023/10/27 01:01:34;;;;;;;9.02;2.13;;;8.00;100.00;;;;;;4866821;29;20067;-75
2023/10/27 01:04:00;;;;;;;9.35;1.92;;;8.00;100.00;;;;;;4868450;29;20132;-74
2023/10/27 01:06:27;;;;;;;5.70;1.63;;;8.00;100.00;;;;;;4868457;29;20469;-75
2023/10/27 01:08:54;;;;;;;5.10;1.70;;;7.90;100.00;;;;;;4867052;29;20080;-75
2023/10/27 01:11:24;;;;;;;10.48;2.22;;;7.90;100.00;;;;;;4864026;29;20072;-75
2023/10/27 01:13:52;;;;;;;5.28;1.70;;;7.90;100.00;;;;;;4867276;29;20080;-75
2023/10/27 01:16:20;;;;;;;3.97;1.30;;;7.90;100.00;;;;;;4868202;29;20056;-75
2023/10/27 01:18:47;;;;;;;9.93;1.67;;;7.90;100.00;;;;;;4866107;29;20053;-75
2023/10/27 01:21:14;;;;;;;7.32;2.17;;;7.90;100.00;;;;;;4866126;29;20053;-75
2023/10/27 01:23:41;;;;;;;11.43;1.80;;;7.90;100.00;;;;;;4865730;29;20834;-75
2023/10/27 01:26:08;;;;;;;10.57;2.10;;;7.80;100.00;;;;;;4866667;29;20502;-75
2023/10/27 01:28:35;;;;;;;12.43;2.05;;;7.90;100.00;;;;;;4868189;29;20502;-75
2023/10/27 01:31:02;;;;;;;6.95;1.90;;;7.90;100.00;;;;;;4867246;29;20049;-75
2023/10/27 01:33:29;;;;;;;3.83;1.38;;;7.90;100.00;;;;;;4867090;29;20641;-75
2023/10/27 01:35:56;;;;;;;3.00;1.27;;;7.90;100.00;;;;;;4867348;29;20121;-75
2023/10/27 01:38:22;;;;;;;4.00;1.45;;;7.90;100.00;;;;;;4867385;29;20061;-75
2023/10/27 01:40:49;;;;;;;6.70;1.40;;;7.90;100.00;;;;;;4867018;29;20081;-75
2023/10/27 01:43:16;;;;;;;5.32;1.60;;;7.90;100.00;;;;;;4867354;29;20106;-75
2023/10/27 01:45:43;;;;;;;5.65;1.70;;;7.90;100.00;;;;;;4860619;29;20045;-75
2023/10/27 01:48:10;;;;;;;3.08;1.83;;;7.90;100.00;;;;;;4866730;29;20479;-74
2023/10/27 01:50:37;;;;;;;8.80;1.85;;;7.90;100.00;;;;;;4867459;29;20132;-75
2023/10/27 01:53:04;;;;;;;8.98;1.40;;;7.90;100.00;;;;;;4868631;29;20056;-75
2023/10/27 01:55:31;;;;;;;7.88;1.83;;;7.90;100.00;;;;;;4865580;29;20732;-74
2023/10/27 01:57:58;;;;;;;6.90;1.63;;;7.90;100.00;;;;;;4867691;29;20059;-75
2023/10/27 02:00:25;;;;;;;6.70;1.88;;;7.90;100.00;;;;;;4855180;29;20494;-75
2023/10/27 02:02:51;;;;;;;5.47;1.23;;;7.90;100.00;;;;;;4866275;29;20141;-75
2023/10/27 02:05:19;;;;;;;5.13;1.42;;;7.90;100.00;;;;;;4872060;29;20071;-75
2023/10/27 02:07:45;;;;;;;10.30;1.77;;;7.90;100.00;;;;;;4869295;29;20126;-75
2023/10/27 02:10:12;;;;;;;7.03;1.73;;;7.90;100.00;;;;;;4867228;29;20081;-75
2023/10/27 02:12:39;;;;;;;6.47;1.42;;;7.90;100.00;;;;;;4868298;29;20041;-75
2023/10/27 02:15:08;;;;;;;3.90;1.30;;;7.90;100.00;;;;;;4870061;29;20155;-75
2023/10/27 02:17:35;;;;;;;4.00;0.90;;;7.90;100.00;;;;;;4872570;29;20502;-75
2023/10/27 02:20:03;;;;;;;8.02;1.30;;;7.90;100.00;;;;;;4851904;29;20053;-75
2023/10/27 02:22:29;;;;;;;4.32;1.75;;;7.90;100.00;;;;;;4868473;29;20076;-75
2023/10/27 02:24:56;;;;;;;4.70;1.73;;;7.80;100.00;;;;;;4869904;29;20141;-75
2023/10/27 02:27:23;;;;;;;5.97;1.48;;;7.80;100.00;;;;;;4870221;29;20049;-75
2023/10/27 02:29:50;;;;;;;6.22;1.02;;;7.80;100.00;;;;;;4870974;29;20132;-75
2023/10/27 02:32:18;;;;;;;2.97;1.23;;;7.80;100.00;;;;;;4870280;29;20053;-75
2023/10/27 02:34:44;;;;;;;3.92;1.27;;;7.80;100.00;;;;;;4868013;29;20049;-75
2023/10/27 02:37:11;;;;;;;11.40;1.60;;;7.80;100.00;;;;;;4869627;29;20684;-75
2023/10/27 02:39:39;;;;;;;6.40;1.38;;;7.80;100.00;;;;;;4867643;29;20049;-75
2023/10/27 02:42:07;;;;;;;2.47;1.55;;;7.80;100.00;;;;;;4868844;29;20045;-75
2023/10/27 02:44:33;;;;;;;2.95;1.60;;;7.80;100.00;;;;;;4852902;29;20041;-75
2023/10/27 02:47:00;;;;;;;4.38;1.52;;;7.80;100.00;;;;;;4870674;29;20052;-75
2023/10/27 02:49:27;;;;;;;8.45;2.30;;;7.80;100.00;;;;;;4853984;29;20049;-75
2023/10/27 02:51:54;;;;;;;6.03;1.55;;;7.80;100.00;;;;;;4870785;29;20071;-75
2023/10/27 02:54:21;;;;;;;13.50;1.48;;;7.80;100.00;;;;;;4870248;29;20052;-75
2023/10/27 02:56:48;;;;;;;7.28;1.77;;;7.80;100.00;;;;;;4872757;29;20140;-74
2023/10/27 02:59:15;;;;;;;5.25;1.48;;;7.80;100.00;;;;;;4870051;29;20136;-75
2023/10/27 03:01:45;;;;;;;7.97;1.70;;;7.80;100.00;;;;;;4868493;29;20048;-75
2023/10/27 03:04:12;;;;;;;2.97;1.17;;;7.80;100.00;;;;;;4870604;29;20143;-75
2023/10/27 03:06:41;;;;;;;6.43;1.55;;;7.80;100.00;;;;;;4869578;29;20041;-75
2023/10/27 03:09:08;;;;;;;5.50;1.45;;;7.80;100.00;;;;;;4853469;29;20053;-75
2023/10/27 03:11:35;;;;;;;6.65;2.05;;;7.80;100.00;;;;;;4869881;29;20053;-75
2023/10/27 03:14:02;;;;;;;6.43;2.00;;;7.90;100.00;;;;;;4854440;29;20131;-75
2023/10/27 03:16:29;;;;;;;6.63;1.45;;;7.80;100.00;;;;;;4869657;29;20053;-75
2023/10/27 03:18:56;;;;;;;4.97;1.30;;;7.80;100.00;;;;;;4869246;29;20696;-75
2023/10/27 03:21:23;;;;;;;5.32;1.73;;;7.90;100.00;;;;;;4869940;29;20791;-76
2023/10/27 03:23:50;;;;;;;10.52;1.85;;;7.80;100.00;;;;;;4861575;29;20701;-75
2023/10/27 03:26:16;;;;;;;7.10;1.83;;;7.80;100.00;;;;;;4869854;29;20068;-75
2023/10/27 03:28:43;;;;;;;8.35;1.70;;;7.80;100.00;;;;;;4868111;29;20165;-75
2023/10/27 03:31:12;;;;;;;5.75;1.63;;;7.80;100.00;;;;;;4870060;29;20080;-75
2023/10/27 03:33:40;;;;;;;9.35;1.60;;;7.80;100.00;;;;;;4870651;29;20065;-75
2023/10/27 03:36:07;;;;;;;6.13;1.77;;;7.80;100.00;;;;;;4869345;29;20108;-76
2023/10/27 03:38:34;;;;;;;3.10;1.38;;;7.90;100.00;;;;;;4869402;29;20136;-75
2023/10/27 03:41:01;;;;;;;2.13;1.20;;;7.90;100.00;;;;;;4876422;29;20137;-75
2023/10/27 03:43:29;;;;;;;14.45;1.65;;;7.90;100.00;;;;;;4868216;29;20496;-75
2023/10/27 03:45:56;;;;;;;5.60;1.90;;;7.90;100.00;;;;;;4868293;29;20137;-75
2023/10/27 03:48:23;;;;;;;5.20;1.52;;;7.90;100.00;;;;;;4869081;29;20045;-75
2023/10/27 03:50:50;;;;;;;5.10;1.27;;;7.90;100.00;;;;;;4868340;29;20497;-75
2023/10/27 03:53:17;;;;;;;11.43;2.50;;;7.80;100.00;;;;;;4869269;29;20132;-75
2023/10/27 03:55:51;;;;;;;6.03;2.13;;;7.80;100.00;;;;;;4867821;29;20487;-75
2023/10/27 03:58:18;;;;;;;11.23;1.85;;;7.80;100.00;;;;;;4866473;29;20056;-75
2023/10/27 04:00:53;;;;;;;4.77;1.50;;;7.80;100.00;;;;;;4868258;29;20059;-75
2023/10/27 04:03:20;;;;;;;5.47;1.42;;;7.80;100.00;;;;;;4869430;29;20048;-74
2023/10/27 04:05:47;;;;;;;7.20;2.05;;;7.80;100.00;;;;;;4858690;29;20060;-75
2023/10/27 04:08:13;;;;;;;15.25;1.80;;;7.80;100.00;;;;;;4869506;29;21547;-75
2023/10/27 04:10:41;;;;;;;10.02;1.92;;;7.80;100.00;;;;;;4868627;29;20057;-75
2023/10/27 04:13:08;;;;;;;7.30;1.70;;;7.80;100.00;;;;;;4867141;29;20124;-75
2023/10/27 04:15:35;;;;;;;7.03;1.80;;;7.80;100.00;;;;;;4866688;29;20059;-75
2023/10/27 04:18:02;;;;;;;4.40;1.45;;;7.80;100.00;;;;;;4868905;29;20108;-75
2023/10/27 04:20:29;;;;;;;12.90;1.70;;;7.80;100.00;;;;;;4868425;29;20059;-75
2023/10/27 04:22:56;;;;;;;13.60;1.95;;;7.80;100.00;;;;;;4851777;29;20128;-75
2023/10/27 04:25:23;;;;;;;5.95;1.83;;;7.80;100.00;;;;;;4869000;29;20551;-75
2023/10/27 04:27:50;;;;;;;5.03;1.75;;;7.80;100.00;;;;;;4868535;29;20049;-75
2023/10/27 04:30:17;;;;;;;5.93;1.88;;;7.70;100.00;;;;;;4866810;29;20104;-75
2023/10/27 04:32:45;;;;;;;6.28;1.95;;;7.80;100.00;;;;;;4869956;29;20116;-75
2023/10/27 04:35:13;;;;;;;6.90;2.20;;;7.80;100.00;;;;;;4865608;29;20057;-75
2023/10/27 04:37:40;;;;;;;4.75;2.25;;;7.80;100.00;;;;;;4869251;29;20071;-75
2023/10/27 04:40:08;;;;;;;6.10;1.70;;;7.70;100.00;;;;;;4860145;29;20781;-75
2023/10/27 04:42:35;;;;;;;4.63;1.63;;;7.70;100.00;;;;;;4868958;29;20148;-75
2023/10/27 04:45:02;;;;;;;10.73;2.25;;;7.70;100.00;;;;;;4865426;29;20143;-75
2023/10/27 04:47:29;;;;;;;6.82;1.80;;;7.70;100.00;;;;;;4852717;29;20045;-75
2023/10/27 04:49:56;;;;;;;8.45;2.70;;;7.70;100.00;;;;;;4865209;29;20064;-75
2023/10/27 04:52:23;;;;;;;6.25;1.92;;;7.70;100.00;;;;;;4867699;29;20057;-75
2023/10/27 04:54:50;;;;;;;8.63;2.45;;;7.70;100.00;;;;;;4868673;29;20163;-76
2023/10/27 04:57:17;;;;;;;7.72;2.10;;;7.70;100.00;;;;;;4853393;29;20056;-76
2023/10/27 04:59:44;;;;;;;4.47;2.10;;;7.60;100.00;;;;;;4871213;29;20156;-75
2023/10/27 05:02:12;;;;;;;9.55;2.30;;;7.60;100.00;;;;;;4876034;29;20141;-76
2023/10/27 05:04:39;;;;;;;10.68;1.98;;;7.60;100.00;;;;;;4898806;23;20039;-71
2023/10/27 05:07:06;;;;;;;9.95;1.85;;;7.60;100.00;;;;;;4925865;29;20142;-73
2023/10/27 05:09:33;;;;;;;8.93;1.85;;;7.60;100.00;;;;;;4925664;29;20043;-71
2023/10/27 05:12:00;;;;;;;7.80;1.85;;;7.60;100.00;;;;;;4925817;29;20051;-71
2023/10/27 05:14:26;;;;;;;6.68;2.38;;;7.70;100.00;;;;;;4908725;29;20079;-73
2023/10/27 05:16:53;;;;;;;9.32;2.53;;;7.60;100.00;;;;;;4922570;29;20079;-71
2023/10/27 05:19:20;;;;;;;9.15;2.22;;;7.60;100.00;;;;;;4924554;29;20162;-75
2023/10/27 05:21:47;;;;;;;7.05;2.42;;;7.70;100.00;;;;;;4921730;29;20757;-72
2023/10/27 05:24:14;;;;;;;6.18;2.35;;;7.60;100.00;;;;;;4928030;29;20523;-71
2023/10/27 05:26:41;;;;;;;9.85;2.13;;;7.70;100.00;;;;;;4910425;29;20464;-72
2023/10/27 05:29:08;;;;;;;9.40;2.25;;;7.70;100.00;;;;;;4917360;29;20645;-71
2023/10/27 05:31:35;;;;;;;9.93;2.63;;;7.70;100.00;;;;;;4910410;29;20055;-70
2023/10/27 05:34:02;;;;;;;6.70;2.33;;;7.70;100.00;;;;;;4895149;29;20047;-71
2023/10/27 05:36:30;;;;;;;8.35;2.72;;;7.70;100.00;;;;;;4897609;29;20059;-70
2023/10/27 05:38:56;;;;;;;7.18;2.10;;;7.70;100.00;;;;;;4910473;29;20170;-72
2023/10/27 05:41:24;;;;;;;3.95;2.10;;;7.70;100.00;;;;;;4910319;29;20128;-71
2023/10/27 05:43:51;;;;;;;5.68;2.45;;;7.70;100.00;;;;;;4911135;29;20194;-70
2023/10/27 05:46:18;;;;;;;7.90;2.45;;;7.70;100.00;;;;;;4922836;23;20050;-70
2023/10/27 05:48:46;;;;;;;7.93;2.55;;;7.70;100.00;;;;;;4922434;29;20047;-70
2023/10/27 05:51:15;;;;;;;11.45;2.60;;;7.70;100.00;;;;;;4923586;29;20053;-70
2023/10/27 05:53:43;;;;;;;8.25;2.13;;;7.70;100.00;;;;;;4923943;29;20801;-70
2023/10/27 05:56:10;;;;;;;7.05;2.42;;;7.70;100.00;;;;;;4940372;29;20083;-70
2023/10/27 05:58:36;;;;;;;6.70;2.78;;;7.70;100.00;;;;;;4938520;29;20087;-70
2023/10/27 06:01:05;;;;;;;5.68;2.55;;;7.60;100.00;;;;;;4922212;29;20062;-70
2023/10/27 06:03:32;;;;;;;15.68;4.05;;;7.60;100.00;;;;;;4923145;29;20654;-70
2023/10/27 06:06:00;;;;;;;14.75;2.80;;;7.60;100.00;;;;;;4933598;28;20051;-70
2023/10/27 06:08:27;;;;;;;18.70;2.80;;;7.70;100.00;;;;;;4941954;29;20063;-70
2023/10/27 06:10:54;;;;;;;15.48;3.03;;;7.60;100.00;;;;;;4935286;28;20929;-70
2023/10/27 06:13:21;;;;;;;7.65;3.05;;;7.60;100.00;;;;;;4936785;28;20149;-70
2023/10/27 06:15:48;;;;;;;9.70;2.70;;;7.60;100.00;;;;;;4936950;29;20109;-70
2023/10/27 06:18:15;;;;;;;16.05;3.35;;;7.70;100.00;;;;;;4919883;29;20110;-71
2023/10/27 06:20:42;;;;;;;8.52;2.70;;;7.70;100.00;;;;;;4921698;29;20138;-71
2023/10/27 06:23:09;;;;;;;14.25;3.17;;;7.70;100.00;;;;;;4937260;28;20067;-70
2023/10/27 06:25:37;;;;;;;13.10;3.60;;;7.70;100.00;;;;;;4936912;28;20055;-70
2023/10/27 06:28:04;;;;;;;11.23;3.42;;;7.70;100.00;;;;;;4937403;28;21025;-71
2023/10/27 06:30:32;;;;;;;11.65;3.80;;;7.70;100.00;;;;;;4936512;29;20051;-70
2023/10/27 06:32:59;;;;;;;13.63;3.60;;;7.70;100.00;;;;;;4919277;29;20053;-70
2023/10/27 06:35:26;;;;;;;16.30;3.78;;;7.70;100.00;;;;;;4922876;29;20674;-71
2023/10/27 06:37:53;;;;;;;9.68;3.33;;;7.80;100.00;;;;;;4928195;29;20134;-70
2023/10/27 06:40:20;;;;;;;7.10;3.38;;;7.80;100.00;;;;;;4940451;29;20523;-71
2023/10/27 06:42:47;;;;;;;10.18;2.83;;;7.80;100.00;;;;;;4947558;28;20062;-71
2023/10/27 06:45:14;;;;;;;14.02;3.65;;;7.80;100.00;;;;;;4943932;29;20054;-71
2023/10/27 06:47:40;;;;;;;9.68;3.58;;;7.90;100.00;;;;;;4938294;29;20048;-70
2023/10/27 06:50:08;;;;;;;8.20;2.90;;;7.90;100.00;;;;;;4924389;29;20859;-71
2023/10/27 06:52:35;;;;;;;13.65;3.22;;;7.90;100.00;;;;;;4947999;29;20688;-71
2023/10/27 06:55:03;;;;;;;8.57;3.05;;;7.90;100.00;;;;;;4944109;29;20106;-70
2023/10/27 06:57:31;;;;;;;11.77;2.92;;;8.00;100.00;;;;;;4947561;28;20047;-71
2023/10/27 06:59:57;;;;;;;5.63;2.58;;;8.00;100.00;;;;;;4923866;29;20055;-70
2023/10/27 07:02:25;;;;;;;7.70;2.58;;;8.00;100.00;;;;;;4927899;29;20051;-70
2023/10/27 07:04:52;;;;;;;9.10;2.92;;;8.00;100.00;;;;;;4926112;28;20055;-70
2023/10/27 07:07:19;;;;;;;10.63;3.33;;;8.00;100.00;;;;;;4923630;29;20152;-70
2023/10/27 07:09:54;;;;;;;;;;;8.00;100.00;;;;;;4942766;28;20043;-70
2023/10/27 07:12:21;;;;;;;5.90;2.42;;;8.10;100.00;;;;;;4945114;28;19926;-70
2023/10/27 07:14:48;;;;;;;7.65;3.08;;;8.10;100.00;;;;;;4941974;29;20051;-70
2023/10/27 07:17:15;;;;;;;17.02;2.78;;;8.10;100.00;;;;;;4923936;29;20171;-72
2023/10/27 07:19:42;;;;;;;7.20;2.55;;;8.20;100.00;;;;;;4926183;28;20113;-71
2023/10/27 07:22:09;;;;;;;10.43;3.10;;;8.20;100.00;;;;;;4942665;28;20144;-71
2023/10/27 07:24:36;;;;;;;5.60;2.35;;;8.30;100.00;;;;;;4927088;29;20071;-71
2023/10/27 07:27:03;;;;;;;3.53;2.05;;;8.30;100.00;;;;;;4943535;29;20567;-71
2023/10/27 07:29:31;;;;;;;7.10;2.35;;;8.40;100.00;;;;;;4943517;28;20138;-71
2023/10/27 07:31:58;;;;;;;5.70;2.13;;;8.40;100.00;;;;;;4940410;29;20111;-71
2023/10/27 07:34:25;;;;;;;9.60;2.05;;;8.40;100.00;;;;;;4921013;29;20050;-70
2023/10/27 07:36:53;;;;;;;11.93;2.38;;;8.40;100.00;;;;;;4940117;29;20056;-70
2023/10/27 07:39:22;;;;;;;6.25;1.92;;;8.40;100.00;;;;;;4940412;29;20055;-71
2023/10/27 07:41:51;;;;;;;5.55;2.15;;;8.40;100.00;;;;;;4941510;29;20076;-71
2023/10/27 07:44:18;;;;;;;5.10;2.45;;;8.40;100.00;;;;;;4925480;29;20051;-71
2023/10/27 07:46:45;;;;;;;4.22;1.80;;;8.50;100.00;;;;;;4927754;28;20127;-71
2023/10/27 07:49:12;;;;;;;6.63;2.50;;;8.50;100.00;;;;;;4925449;29;20051;-71
2023/10/27 07:51:39;;;;;;;5.18;2.15;;;8.60;100.00;;;;;;4941843;29;20475;-71
2023/10/27 07:54:06;;;;;;;4.57;2.20;;;8.60;100.00;;;;;;4926654;29;20043;-71
2023/10/27 07:56:33;;;;;;;4.75;1.80;;;8.60;100.00;;;;;;4936710;28;20047;-71
2023/10/27 07:59:00;;;;;;;4.78;1.80;;;8.70;100.00;;;;;;4927089;29;20129;-71
2023/10/27 08:01:27;;;;;;;4.70;1.85;;;8.70;100.00;;;;;;4938824;29;20175;-71
2023/10/27 08:03:54;;;;;;;5.65;2.08;;;8.80;100.00;;;;;;4927574;29;20076;-71
2023/10/27 08:06:28;;;;;;;10.60;1.90;;;8.80;100.00;;;;;;4924374;29;20051;-71
2023/10/27 08:08:55;;;;;;;4.70;1.55;;;8.80;100.00;;;;;;4941015;28;20591;-71
2023/10/27 08:11:21;;;;;;;5.88;1.98;;;8.90;100.00;;;;;;4937903;28;20632;-70
2023/10/27 08:13:48;;;;;;;7.18;1.88;;;8.90;100.00;;;;;;4924044;29;20444;-70
2023/10/27 08:16:15;;;;;;;4.78;1.75;;;9.00;100.00;;;;;;4926730;29;20059;-70
2023/10/27 08:18:42;;;;;;;7.50;1.90;;;9.00;100.00;;;;;;4943365;29;20051;-69
2023/10/27 08:21:09;;;;;;;3.22;1.90;;;9.00;100.00;;;;;;4940384;28;20415;-70
2023/10/27 08:26:09;;;;;;;4.97;1.70;;;9.10;100.00;;;;;;4929191;23;20579;-73
2023/10/27 08:28:36;;;;;;;3.10;1.33;;;9.20;100.00;;;;;;4951909;28;20047;-73
2023/10/27 08:31:03;;;;;;;4.57;1.33;;;9.20;100.00;;;;;;4960043;28;20055;-74
2023/10/27 08:33:30;;;;;;;13.63;2.70;;;9.30;100.00;;;;;;4952038;28;20303;-75
2023/10/27 08:36:03;;;;;;;7.63;1.75;;;9.30;100.00;;;;;;4934653;28;20058;-74
2023/10/27 08:38:31;;;;;;;3.13;1.63;;;9.30;100.00;;;;;;4954214;28;20172;-74
2023/10/27 08:40:58;;;;;;;3.60;1.42;;;9.40;100.00;;;;;;4949606;23;20542;-73
2023/10/27 08:43:26;;;;;;;1.35;1.17;;;9.50;100.00;;;;;;4939761;29;20117;-73
2023/10/27 08:45:53;;;;;;;3.38;1.73;;;9.60;100.00;;;;;;4941491;29;20057;-73
2023/10/27 08:48:20;;;;;;;2.70;1.10;;;9.70;100.00;;;;;;4939441;29;20646;-73
2023/10/27 08:50:49;;;;;;;3.45;1.15;;;9.80;100.00;;;;;;4919659;29;20043;-73
2023/10/27 08:53:17;;;;;;;2.20;0.90;;;9.80;100.00;;;;;;4940772;29;20044;-73
2023/10/27 08:55:47;;;;;;;2.88;0.77;;;9.80;100.00;;;;;;4916762;29;20052;-74
2023/10/27 08:58:14;;;;;;;3.25;0.80;;;9.80;100.00;;;;;;4940148;29;20557;-74
2023/10/27 09:00:42;;;;;;;3.03;1.00;;;9.90;100.00;;;;;;4915153;29;20101;-74
2023/10/27 09:03:16;;;;;;;2.10;1.10;;;9.90;100.00;;;;;;4932050;29;20134;-75
2023/10/27 09:05:44;;;;;;;4.57;1.03;;;9.80;100.00;;;;;;4936543;29;20059;-75
2023/10/27 09:08:11;;;;;;;2.72;1.35;;;9.80;100.00;;;;;;4928027;29;20507;-74
2023/10/27 09:10:38;;;;;;;4.10;0.93;;;9.80;100.00;;;;;;4936039;29;20051;-77
2023/10/27 09:13:05;;;;;;;5.63;1.38;;;9.70;100.00;;;;;;4914647;29;20047;-76
2023/10/27 09:15:45;;;;;;;3.35;0.85;;;9.70;100.00;;;;;;4936654;29;20051;-76
2023/10/27 09:18:13;;;;;;;4.72;1.10;;;9.70;100.00;;;;;;4933510;29;20124;-74
2023/10/27 09:20:49;;;;;;;5.20;1.35;;;9.70;100.00;;;;;;4936070;28;20054;-74
2023/10/27 09:23:16;;;;;;;3.28;0.90;;;9.70;100.00;;;;;;4938595;28;20051;-73
2023/10/27 09:25:43;;;;;;;2.38;0.90;;;9.70;100.00;;;;;;4935708;29;20047;-73
2023/10/27 09:28:12;;;;;;;6.88;0.73;;;9.70;100.00;;;;;;4939226;29;20702;-73
2023/10/27 09:30:43;;;;;;;1.27;0.65;;;9.80;100.00;;;;;;4928623;29;20050;-74
2023/10/27 09:33:18;;;;;;;2.20;1.10;;;9.80;100.00;;;;;;4934544;29;20079;-75
2023/10/27 09:35:46;;;;;;;2.58;0.95;;;9.70;100.00;;;;;;4933439;29;20052;-74
2023/10/27 09:38:14;;;;;;;5.60;1.02;;;9.80;100.00;;;;;;4943290;29;20094;-74
2023/10/27 09:40:43;;;;;;;6.40;0.77;;;9.80;100.00;;;;;;4937942;29;20079;-73
2023/10/27 09:43:21;;;;;;;3.70;0.98;;;9.70;100.00;;;;;;4936130;28;20654;-73
2023/10/27 09:45:53;;;;;;;5.50;1.10;;;9.70;100.00;;;;;;4911552;29;20051;-73
2023/10/27 09:48:27;;;;;;;1.67;0.85;;;9.70;100.00;;;;;;4936119;29;20047;-73
2023/10/27 09:51:12;;;;;;;1.25;0.55;;;9.80;100.00;;;;;;4943204;29;20652;-73
2023/10/27 09:53:41;;;;;;;5.18;0.82;;;9.90;100.00;;;;;;4939750;29;20052;-74
2023/10/27 09:56:09;;;;;;;0.93;0.70;;;10.00;100.00;;;;;;4942084;28;20055;-74
2023/10/27 09:58:36;;;;;;;0.82;0.50;;;9.90;100.00;;;;;;4932516;28;20533;-75
2023/10/27 10:01:04;;;;;;;1.60;0.70;;;10.00;100.00;;;;;;4945177;28;20055;-74
2023/10/27 10:03:32;;;;;;;2.58;0.90;;;10.00;100.00;;;;;;4934215;29;20151;-74
2023/10/27 10:06:23;;;;;;;4.00;1.63;;;10.00;100.00;;;;;;4934859;29;20138;-74
2023/10/27 10:09:08;;;;;;;3.72;1.40;;;10.10;100.00;;;;;;4935609;28;20464;-78
2023/10/27 10:11:55;;;;;;;5.25;1.48;;;10.10;100.00;;;;;;4916156;29;20678;-74
2023/10/27 10:14:55;;;;;;;3.40;1.23;;;10.20;100.00;;;;;;4933222;29;20273;-74
2023/10/27 10:17:39;;;;;;;3.72;1.20;;;10.30;100.00;;;;;;4876775;29;20117;-74
2023/10/27 10:20:09;;;;;;;3.63;1.42;;;10.20;100.00;;;;;;4922287;29;20452;-74
2023/10/27 10:22:45;;;;;;;1.45;0.93;;;10.30;100.00;;;;;;4919621;29;20047;-76
2023/10/27 10:25:14;;;;;;;8.18;1.63;;;10.30;100.00;;;;;;4938548;28;20394;-76
2023/10/27 10:28:06;;;;;;;3.50;1.10;;;10.40;100.00;;;;;;4925775;29;20048;-76
2023/10/27 10:30:39;;;;;;;9.63;0.95;;;10.50;100.00;;;;;;4935020;29;20048;-76
2023/10/27 10:33:19;;;;;;;1.63;1.00;;;10.60;100.00;;;;;;4918437;28;20056;-74
2023/10/27 10:35:47;;;;;;;2.72;0.50;;;10.70;100.00;;;;;;4924044;28;20083;-76
2023/10/27 10:38:23;;;;;;;2.78;0.52;;;10.80;100.00;;;;;;4917262;29;20125;-76
2023/10/27 10:40:59;;;;;;;1.95;1.10;;;10.80;100.00;;;;;;4936149;29;20057;-76
2023/10/27 10:43:29;;;;;;;0.95;0.32;;;10.80;100.00;;;;;;4933350;28;20055;-75
2023/10/27 10:45:58;;;;;;;1.77;0.75;;;10.80;100.00;;;;;;4936614;28;20063;-75
2023/10/27 10:48:27;;;;;;;0.77;0.40;;;10.90;100.00;;;;;;4940244;28;20087;-76
2023/10/27 10:50:58;;;;;;;2.55;0.50;;;10.90;100.00;;;;;;4943758;28;20055;-76
2023/10/27 10:53:25;;;;;;;0.30;0.28;;;10.90;100.00;;;;;;4932654;29;20075;-73
2023/10/27 10:56:00;;;;;;;1.00;0.57;;;10.90;100.00;;;;;;4933529;28;20501;-75
2023/10/27 10:58:29;;;;;;;1.45;0.52;;;10.90;100.00;;;;;;4927743;28;20059;-75
2023/10/27 11:00:58;;;;;;;0.90;0.60;;;11.00;100.00;;;;;;4909707;28;20051;-75
2023/10/27 11:03:31;;;;;;;1.02;0.68;;;10.90;100.00;;;;;;4930756;28;20055;-74
2023/10/27 11:06:00;;;;;;;1.95;0.50;;;10.90;100.00;;;;;;4914725;28;20059;-75
2023/10/27 11:08:29;;;;;;;1.05;0.57;;;10.90;100.00;;;;;;4937117;29;20052;-74
2023/10/27 11:11:07;;;;;;;2.15;0.40;;;10.90;100.00;;;;;;4939408;29;20095;-75
2023/10/27 11:13:39;;;;;;;1.35;0.73;;;10.80;100.00;;;;;;4935885;29;20459;-74
2023/10/27 11:16:19;;;;;;;1.15;0.57;;;10.80;100.00;;;;;;4934848;28;20062;-74
2023/10/27 11:18:47;;;;;;;1.92;0.70;;;10.80;100.00;;;;;;4936838;28;20131;-75
2023/10/27 11:21:22;;;;;;;1.63;0.60;;;10.80;100.00;;;;;;4937542;28;20048;-75
2023/10/27 11:23:50;;;;;;;1.63;0.77;;;10.70;100.00;;;;;;4916006;28;20352;-75
2023/10/27 11:26:22;;;;;;;0.98;0.60;;;10.70;100.00;;;;;;4943564;28;20082;-76
2023/10/27 11:28:50;;;;;;;1.27;0.65;;;10.70;100.00;;;;;;4932280;29;20146;-75
2023/10/27 11:31:23;;;;;;;6.00;1.10;;;10.60;100.00;;;;;;4939264;28;20126;-75
2023/10/27 11:34:00;;;;;;;1.30;0.80;;;10.60;100.00;;;;;;4928969;28;20245;-75
2023/10/27 11:36:35;;;;;;;2.63;0.70;;;10.60;100.00;;;;;;4932022;28;20052;-75
2023/10/27 11:39:15;;;;;;;1.95;1.20;;;10.60;100.00;;;;;;4940393;28;20401;-75
2023/10/27 11:42:03;;;;;;;2.60;1.40;;;10.60;100.00;;;;;;4931189;29;20088;-74
2023/10/27 11:44:33;;;;;;;6.55;1.73;;;10.50;100.00;;;;;;4917489;29;20130;-75
2023/10/27 11:47:04;;;;;;;4.20;1.50;;;10.50;100.00;;;;;;4930905;28;20056;-75
2023/10/27 11:49:32;;;;;;;2.47;1.05;;;10.50;100.00;;;;;;4914196;29;20239;-75
2023/10/27 11:51:59;;;;;;;5.05;0.90;;;10.60;100.00;;;;;;4931901;29;20058;-75
2023/10/27 11:54:27;;;;;;;4.60;0.70;;;10.60;100.00;;;;;;4920057;28;20286;-75
2023/10/27 11:56:54;;;;;;;2.10;0.60;;;10.60;100.00;;;;;;4937768;28;20097;-75
2023/10/27 11:59:25;;;;;;;0.80;0.47;;;10.50;100.00;;;;;;4931309;28;20104;-75
2023/10/27 12:01:53;;;;;;;3.40;0.75;;;10.40;100.00;;;;;;4928987;28;20127;-75
2023/10/27 12:04:20;;;;;;;5.75;0.88;;;10.40;100.00;;;;;;4930550;28;20581;-75
2023/10/27 12:06:52;;;;;;;1.17;0.60;;;10.40;100.00;;;;;;4919746;29;20106;-74
2023/10/27 12:09:20;;;;;;;0.60;0.55;;;10.30;100.00;;;;;;4936143;28;20340;-75
2023/10/27 12:11:47;;;;;;;8.68;0.80;;;10.30;100.00;;;;;;4934527;28;20560;-75
2023/10/27 12:14:13;;;;;;;1.15;0.65;;;10.20;100.00;;;;;;4915699;29;20145;-75
2023/10/27 12:16:42;;;;;;;3.03;0.68;;;10.20;100.00;;;;;;4933916;28;20535;-75
2023/10/27 12:19:13;;;;;;;0.90;0.60;;;10.10;100.00;;;;;;4918670;29;20052;-75
2023/10/27 12:21:40;;;;;;;4.40;0.60;;;10.10;100.00;;;;;;4927504;29;20131;-74
2023/10/27 12:24:08;;;;;;;1.05;0.75;;;10.10;100.00;;;;;;4934361;28;20297;-75
2023/10/27 12:26:36;;;;;;;1.23;0.63;;;10.10;100.00;;;;;;4918701;29;20493;-75
2023/10/27 12:29:04;;;;;;;1.55;0.90;;;10.10;100.00;;;;;;4937339;28;20047;-74
2023/10/27 12:31:32;;;;;;;1.33;0.80;;;10.10;100.00;;;;;;4913048;29;20051;-74
2023/10/27 12:33:59;;;;;;;1.55;0.65;;;10.10;100.00;;;;;;4915953;28;20781;-75
2023/10/27 12:36:26;;;;;;;0.88;0.50;;;10.10;100.00;;;;;;4915753;29;20140;-75
2023/10/27 12:38:53;;;;;;;1.70;0.70;;;10.10;100.00;;;;;;4932079;28;20149;-75
2023/10/27 12:41:20;;;;;;;1.33;0.52;;;10.10;100.00;;;;;;4945045;29;20133;-74
2023/10/27 12:43:47;;;;;;;2.10;0.80;;;10.20;100.00;;;;;;4939552;28;20134;-74
2023/10/27 12:46:14;;;;;;;1.17;0.70;;;10.20;100.00;;;;;;4935578;28;20099;-75
2023/10/27 12:48:41;;;;;;;5.72;0.82;;;10.20;100.00;;;;;;4939540;28;20043;-74
2023/10/27 12:51:08;;;;;;;1.17;0.70;;;10.20;100.00;;;;;;4937859;28;20834;-75